sensor_id;sensor_type;location;lat;lon;timestamp;P1;durP1;ratioP1;P2;durP2;ratioP2
23678;SDS011;12016;51.668;6.874;2022-09-21T00:02:23;1.90;;;1.63;;
23678;SDS011;12016;51.668;6.874;2022-09-21T00:08:26;3.42;;;1.52;;
23678;SDS011;12016;51.668;6.874;2022-09-21T00:14:28;3.45;;;1.50;;
23678;SDS011;12016;51.668;6.874;2022-09-21T00:20:31;1.95;;;1.75;;
23678;SDS011;12016;51.668;6.874;2022-09-21T00:26:33;6.13;;;1.92;;
23678;SDS011;12016;51.668;6.874;2022-09-21T00:32:36;2.42;;;1.65;;
23678;SDS011;12016;51.668;6.874;2022-09-21T00:44:41;3.92;;;1.60;;
23678;SDS011;12016;51.668;6.874;2022-09-21T00:50:45;2.00;;;1.67;;
23678;SDS011;12016;51.668;6.874;2022-09-21T00:56:54;1.75;;;1.45;;
23678;SDS011;12016;51.668;6.874;2022-09-21T01:03:03;1.88;;;1.50;;
23678;SDS011;12016;51.668;6.874;2022-09-21T01:09:05;1.90;;;1.38;;
23678;SDS011;12016;51.668;6.874;2022-09-21T01:21:59;1.80;;;1.60;;
23678;SDS011;12016;51.668;6.874;2022-09-21T01:34:34;2.45;;;1.50;;
23678;SDS011;12016;51.668;6.874;2022-09-21T01:40:43;2.03;;;1.60;;
23678;SDS011;12016;51.668;6.874;2022-09-21T01:46:50;3.03;;;1.70;;
23678;SDS011;12016;51.668;6.874;2022-09-21T01:52:55;1.98;;;1.80;;
23678;SDS011;12016;51.668;6.874;2022-09-21T01:59:08;2.92;;;1.90;;
23678;SDS011;12016;51.668;6.874;2022-09-21T02:11:20;2.05;;;1.58;;
23678;SDS011;12016;51.668;6.874;2022-09-21T02:23:32;2.20;;;1.45;;
23678;SDS011;12016;51.668;6.874;2022-09-21T02:36:29;2.20;;;1.50;;
23678;SDS011;12016;51.668;6.874;2022-09-21T02:42:37;1.48;;;1.38;;
23678;SDS011;12016;51.668;6.874;2022-09-21T02:48:44;2.70;;;1.60;;
23678;SDS011;12016;51.668;6.874;2022-09-21T02:54:51;2.10;;;1.48;;
23678;SDS011;12016;51.668;6.874;2022-09-21T03:00:56;1.67;;;1.58;;
23678;SDS011;12016;51.668;6.874;2022-09-21T03:06:59;2.70;;;1.58;;
23678;SDS011;12016;51.668;6.874;2022-09-21T03:13:01;3.03;;;1.60;;
23678;SDS011;12016;51.668;6.874;2022-09-21T03:19:03;1.95;;;1.60;;
23678;SDS011;12016;51.668;6.874;2022-09-21T03:25:06;2.75;;;1.70;;
23678;SDS011;12016;51.668;6.874;2022-09-21T03:31:12;2.20;;;1.75;;
23678;SDS011;12016;51.668;6.874;2022-09-21T03:37:14;1.70;;;1.60;;
23678;SDS011;12016;51.668;6.874;2022-09-21T03:43:17;2.15;;;2.00;;
23678;SDS011;12016;51.668;6.874;2022-09-21T03:49:20;4.00;;;2.15;;
23678;SDS011;12016;51.668;6.874;2022-09-21T03:55:22;2.10;;;1.90;;
23678;SDS011;12016;51.668;6.874;2022-09-21T04:01:24;2.53;;;1.98;;
23678;SDS011;12016;51.668;6.874;2022-09-21T04:07:29;2.55;;;2.17;;
23678;SDS011;12016;51.668;6.874;2022-09-21T04:13:35;3.83;;;2.40;;
23678;SDS011;12016;51.668;6.874;2022-09-21T04:19:37;3.58;;;2.50;;
23678;SDS011;12016;51.668;6.874;2022-09-21T04:25:40;2.45;;;2.20;;
23678;SDS011;12016;51.668;6.874;2022-09-21T04:31:42;2.97;;;2.35;;
23678;SDS011;12016;51.668;6.874;2022-09-21T04:37:44;3.28;;;2.13;;
23678;SDS011;12016;51.668;6.874;2022-09-21T04:43:47;5.05;;;2.70;;
23678;SDS011;12016;51.668;6.874;2022-09-21T04:49:49;2.78;;;2.58;;
23678;SDS011;12016;51.668;6.874;2022-09-21T04:55:53;3.72;;;2.63;;
23678;SDS011;12016;51.668;6.874;2022-09-21T05:01:55;4.82;;;2.55;;
23678;SDS011;12016;51.668;6.874;2022-09-21T05:07:57;4.70;;;3.90;;
23678;SDS011;12016;51.668;6.874;2022-09-21T05:14:14;3.20;;;2.90;;
23678;SDS011;12016;51.668;6.874;2022-09-21T05:20:16;4.88;;;2.65;;
23678;SDS011;12016;51.668;6.874;2022-09-21T05:26:18;2.60;;;2.40;;
23678;SDS011;12016;51.668;6.874;2022-09-21T05:32:24;2.85;;;2.53;;
23678;SDS011;12016;51.668;6.874;2022-09-21T05:38:34;3.20;;;2.80;;
23678;SDS011;12016;51.668;6.874;2022-09-21T05:44:36;3.25;;;2.50;;
23678;SDS011;12016;51.668;6.874;2022-09-21T05:50:55;3.13;;;2.33;;
23678;SDS011;12016;51.668;6.874;2022-09-21T05:57:10;3.20;;;2.53;;
23678;SDS011;12016;51.668;6.874;2022-09-21T06:03:35;3.97;;;2.70;;
23678;SDS011;12016;51.668;6.874;2022-09-21T06:09:38;3.85;;;2.90;;
23678;SDS011;12016;51.668;6.874;2022-09-21T06:15:43;3.67;;;2.92;;
23678;SDS011;12016;51.668;6.874;2022-09-21T06:21:45;3.63;;;2.70;;
23678;SDS011;12016;51.668;6.874;2022-09-21T06:27:47;3.33;;;3.03;;
23678;SDS011;12016;51.668;6.874;2022-09-21T06:33:49;4.97;;;3.55;;
23678;SDS011;12016;51.668;6.874;2022-09-21T06:39:51;4.22;;;3.30;;
23678;SDS011;12016;51.668;6.874;2022-09-21T06:45:53;4.43;;;3.20;;
23678;SDS011;12016;51.668;6.874;2022-09-21T06:51:58;4.50;;;3.47;;
23678;SDS011;12016;51.668;6.874;2022-09-21T06:58:00;6.45;;;4.20;;
23678;SDS011;12016;51.668;6.874;2022-09-21T07:04:03;5.38;;;4.75;;
23678;SDS011;12016;51.668;6.874;2022-09-21T07:10:07;6.57;;;5.15;;
23678;SDS011;12016;51.668;6.874;2022-09-21T07:16:12;6.68;;;5.88;;
23678;SDS011;12016;51.668;6.874;2022-09-21T07:22:14;7.43;;;5.53;;
23678;SDS011;12016;51.668;6.874;2022-09-21T07:28:16;7.55;;;5.70;;
23678;SDS011;12016;51.668;6.874;2022-09-21T07:34:19;8.05;;;5.95;;
23678;SDS011;12016;51.668;6.874;2022-09-21T07:40:21;6.85;;;5.40;;
23678;SDS011;12016;51.668;6.874;2022-09-21T07:46:25;6.68;;;6.00;;
23678;SDS011;12016;51.668;6.874;2022-09-21T07:52:27;9.63;;;5.88;;
23678;SDS011;12016;51.668;6.874;2022-09-21T07:58:29;6.43;;;5.72;;
23678;SDS011;12016;51.668;6.874;2022-09-21T08:04:49;8.15;;;6.18;;
23678;SDS011;12016;51.668;6.874;2022-09-21T08:10:53;8.20;;;6.13;;
23678;SDS011;12016;51.668;6.874;2022-09-21T08:16:58;9.13;;;6.45;;
23678;SDS011;12016;51.668;6.874;2022-09-21T08:23:00;7.88;;;6.32;;
23678;SDS011;12016;51.668;6.874;2022-09-21T08:29:03;10.35;;;6.82;;
23678;SDS011;12016;51.668;6.874;2022-09-21T08:35:06;9.73;;;6.55;;
23678;SDS011;12016;51.668;6.874;2022-09-21T08:41:13;13.45;;;7.32;;
23678;SDS011;12016;51.668;6.874;2022-09-21T08:47:21;7.82;;;6.10;;
23678;SDS011;12016;51.668;6.874;2022-09-21T08:53:38;12.13;;;7.38;;
23678;SDS011;12016;51.668;6.874;2022-09-21T08:59:46;9.23;;;7.03;;
23678;SDS011;12016;51.668;6.874;2022-09-21T09:06:00;10.02;;;6.70;;
23678;SDS011;12016;51.668;6.874;2022-09-21T09:25:20;7.30;;;5.47;;
23678;SDS011;12016;51.668;6.874;2022-09-21T09:31:28;10.73;;;5.57;;
23678;SDS011;12016;51.668;6.874;2022-09-21T09:37:35;8.07;;;4.87;;
23678;SDS011;12016;51.668;6.874;2022-09-21T09:43:51;8.55;;;4.40;;
23678;SDS011;12016;51.668;6.874;2022-09-21T09:50:07;4.97;;;3.70;;
23678;SDS011;12016;51.668;6.874;2022-09-21T09:56:13;5.10;;;3.55;;
23678;SDS011;12016;51.668;6.874;2022-09-21T10:02:19;6.13;;;3.00;;
23678;SDS011;12016;51.668;6.874;2022-09-21T10:14:47;4.00;;;2.23;;
23678;SDS011;12016;51.668;6.874;2022-09-21T10:33:18;3.70;;;2.70;;
23678;SDS011;12016;51.668;6.874;2022-09-21T10:45:30;5.70;;;2.33;;
23678;SDS011;12016;51.668;6.874;2022-09-21T10:51:36;2.70;;;2.20;;
23678;SDS011;12016;51.668;6.874;2022-09-21T10:57:42;3.70;;;1.80;;
23678;SDS011;12016;51.668;6.874;2022-09-21T11:03:50;3.10;;;1.50;;
23678;SDS011;12016;51.668;6.874;2022-09-21T11:10:08;1.77;;;1.10;;
23678;SDS011;12016;51.668;6.874;2022-09-21T11:16:14;1.10;;;0.50;;
23678;SDS011;12016;51.668;6.874;2022-09-21T11:22:35;1.35;;;0.70;;
23678;SDS011;12016;51.668;6.874;2022-09-21T11:42:01;1.77;;;0.63;;
23678;SDS011;12016;51.668;6.874;2022-09-21T12:14:54;1.60;;;1.02;;
23678;SDS011;12016;51.668;6.874;2022-09-21T12:27:24;3.13;;;1.02;;
23678;SDS011;12016;51.668;6.874;2022-09-21T12:39:57;2.30;;;0.73;;
23678;SDS011;12016;51.668;6.874;2022-09-21T12:46:40;1.10;;;0.60;;
23678;SDS011;12016;51.668;6.874;2022-09-21T12:52:37;1.00;;;0.60;;
23678;SDS011;12016;51.668;6.874;2022-09-21T13:04:47;1.43;;;0.60;;
23678;SDS011;12016;51.668;6.874;2022-09-21T13:11:00;1.15;;;0.90;;
23678;SDS011;12016;51.668;6.874;2022-09-21T13:17:06;1.48;;;0.77;;
23678;SDS011;12016;51.668;6.874;2022-09-21T13:23:50;2.45;;;0.80;;
23678;SDS011;12016;51.668;6.874;2022-09-21T13:36:43;2.50;;;1.08;;
23678;SDS011;12016;51.668;6.874;2022-09-21T13:42:46;2.20;;;0.93;;
23678;SDS011;12016;51.668;6.874;2022-09-21T13:48:50;1.60;;;1.05;;
23678;SDS011;12016;51.668;6.874;2022-09-21T13:54:58;1.10;;;1.00;;
23678;SDS011;12016;51.668;6.874;2022-09-21T14:01:02;3.42;;;1.10;;
23678;SDS011;12016;51.668;6.874;2022-09-21T14:07:12;2.05;;;1.17;;
23678;SDS011;12016;51.668;6.874;2022-09-21T14:31:54;1.50;;;1.10;;
23678;SDS011;12016;51.668;6.874;2022-09-21T14:38:00;2.55;;;1.10;;
23678;SDS011;12016;51.668;6.874;2022-09-21T14:44:16;1.85;;;0.95;;
23678;SDS011;12016;51.668;6.874;2022-09-21T14:50:33;2.33;;;1.08;;
23678;SDS011;12016;51.668;6.874;2022-09-21T15:02:46;2.47;;;1.40;;
23678;SDS011;12016;51.668;6.874;2022-09-21T15:09:09;2.08;;;1.05;;
23678;SDS011;12016;51.668;6.874;2022-09-21T15:15:41;3.67;;;1.23;;
23678;SDS011;12016;51.668;6.874;2022-09-21T15:22:15;2.30;;;1.13;;
23678;SDS011;12016;51.668;6.874;2022-09-21T15:28:19;1.75;;;1.20;;
23678;SDS011;12016;51.668;6.874;2022-09-21T15:34:23;2.40;;;1.30;;
23678;SDS011;12016;51.668;6.874;2022-09-21T15:40:26;1.75;;;1.10;;
23678;SDS011;12016;51.668;6.874;2022-09-21T15:46:32;1.58;;;1.08;;
23678;SDS011;12016;51.668;6.874;2022-09-21T15:52:36;2.20;;;1.20;;
23678;SDS011;12016;51.668;6.874;2022-09-21T15:58:41;1.38;;;1.27;;
23678;SDS011;12016;51.668;6.874;2022-09-21T16:04:46;1.40;;;1.10;;
23678;SDS011;12016;51.668;6.874;2022-09-21T16:10:52;2.38;;;1.15;;
23678;SDS011;12016;51.668;6.874;2022-09-21T16:23:21;2.33;;;1.20;;
23678;SDS011;12016;51.668;6.874;2022-09-21T16:29:27;2.50;;;1.10;;
23678;SDS011;12016;51.668;6.874;2022-09-21T16:35:41;2.25;;;1.17;;
23678;SDS011;12016;51.668;6.874;2022-09-21T16:41:48;3.50;;;1.30;;
23678;SDS011;12016;51.668;6.874;2022-09-21T16:48:00;1.48;;;1.20;;
23678;SDS011;12016;51.668;6.874;2022-09-21T16:54:05;1.13;;;1.02;;
23678;SDS011;12016;51.668;6.874;2022-09-21T17:00:18;2.70;;;1.40;;
23678;SDS011;12016;51.668;6.874;2022-09-21T17:06:21;5.13;;;1.40;;
23678;SDS011;12016;51.668;6.874;2022-09-21T17:12:22;4.78;;;1.40;;
23678;SDS011;12016;51.668;6.874;2022-09-21T17:18:25;1.67;;;1.30;;
23678;SDS011;12016;51.668;6.874;2022-09-21T17:24:27;2.83;;;1.65;;
23678;SDS011;12016;51.668;6.874;2022-09-21T17:30:47;3.45;;;1.80;;
23678;SDS011;12016;51.668;6.874;2022-09-21T17:36:49;2.33;;;1.60;;
23678;SDS011;12016;51.668;6.874;2022-09-21T17:42:52;4.43;;;2.40;;
23678;SDS011;12016;51.668;6.874;2022-09-21T17:49:12;3.40;;;2.33;;
23678;SDS011;12016;51.668;6.874;2022-09-21T17:55:13;2.67;;;2.03;;
23678;SDS011;12016;51.668;6.874;2022-09-21T18:01:19;5.95;;;2.13;;
23678;SDS011;12016;51.668;6.874;2022-09-21T18:07:28;4.43;;;2.50;;
23678;SDS011;12016;51.668;6.874;2022-09-21T18:20:11;5.78;;;2.55;;
23678;SDS011;12016;51.668;6.874;2022-09-21T18:26:23;3.72;;;2.75;;
23678;SDS011;12016;51.668;6.874;2022-09-21T18:32:32;4.13;;;2.90;;
23678;SDS011;12016;51.668;6.874;2022-09-21T18:45:32;3.10;;;2.45;;
23678;SDS011;12016;51.668;6.874;2022-09-21T18:58:21;4.93;;;2.97;;
23678;SDS011;12016;51.668;6.874;2022-09-21T19:04:23;6.22;;;3.63;;
23678;SDS011;12016;51.668;6.874;2022-09-21T19:10:33;3.40;;;3.10;;
23678;SDS011;12016;51.668;6.874;2022-09-21T19:16:44;4.72;;;3.65;;
23678;SDS011;12016;51.668;6.874;2022-09-21T19:23:07;6.28;;;3.70;;
23678;SDS011;12016;51.668;6.874;2022-09-21T19:35:32;6.03;;;5.30;;
23678;SDS011;12016;51.668;6.874;2022-09-21T19:47:44;7.80;;;6.40;;
23678;SDS011;12016;51.668;6.874;2022-09-21T19:53:59;9.38;;;6.70;;
23678;SDS011;12016;51.668;6.874;2022-09-21T20:00:21;7.35;;;5.60;;
23678;SDS011;12016;51.668;6.874;2022-09-21T20:06:32;6.95;;;5.22;;
23678;SDS011;12016;51.668;6.874;2022-09-21T20:13:48;5.72;;;4.38;;
23678;SDS011;12016;51.668;6.874;2022-09-21T20:25:54;5.35;;;4.10;;
23678;SDS011;12016;51.668;6.874;2022-09-21T20:32:01;4.05;;;3.67;;
23678;SDS011;12016;51.668;6.874;2022-09-21T20:38:02;5.55;;;4.20;;
23678;SDS011;12016;51.668;6.874;2022-09-21T20:44:04;6.22;;;4.30;;
23678;SDS011;12016;51.668;6.874;2022-09-21T20:50:06;6.57;;;4.50;;
23678;SDS011;12016;51.668;6.874;2022-09-21T20:56:11;5.65;;;5.05;;
23678;SDS011;12016;51.668;6.874;2022-09-21T21:02:14;7.05;;;5.57;;
23678;SDS011;12016;51.668;6.874;2022-09-21T21:08:18;8.98;;;4.78;;
23678;SDS011;12016;51.668;6.874;2022-09-21T21:14:20;5.40;;;4.15;;
23678;SDS011;12016;51.668;6.874;2022-09-21T21:20:22;4.20;;;3.60;;
23678;SDS011;12016;51.668;6.874;2022-09-21T21:26:23;4.43;;;2.60;;
23678;SDS011;12016;51.668;6.874;2022-09-21T21:32:34;2.60;;;2.40;;
23678;SDS011;12016;51.668;6.874;2022-09-21T21:38:36;6.82;;;2.85;;
23678;SDS011;12016;51.668;6.874;2022-09-21T21:44:38;3.80;;;3.20;;
23678;SDS011;12016;51.668;6.874;2022-09-21T21:50:40;4.40;;;4.00;;
23678;SDS011;12016;51.668;6.874;2022-09-21T21:56:44;6.38;;;4.80;;
23678;SDS011;12016;51.668;6.874;2022-09-21T22:02:45;6.60;;;5.20;;
23678;SDS011;12016;51.668;6.874;2022-09-21T22:08:47;5.80;;;5.20;;
23678;SDS011;12016;51.668;6.874;2022-09-21T22:14:50;10.75;;;5.80;;
23678;SDS011;12016;51.668;6.874;2022-09-21T22:20:51;4.93;;;4.40;;
23678;SDS011;12016;51.668;6.874;2022-09-21T22:26:53;5.88;;;4.80;;
23678;SDS011;12016;51.668;6.874;2022-09-21T22:32:56;5.80;;;4.45;;
23678;SDS011;12016;51.668;6.874;2022-09-21T22:38:58;6.70;;;4.20;;
23678;SDS011;12016;51.668;6.874;2022-09-21T22:45:00;5.80;;;4.10;;
23678;SDS011;12016;51.668;6.874;2022-09-21T22:51:02;4.70;;;3.63;;
23678;SDS011;12016;51.668;6.874;2022-09-21T22:57:04;3.88;;;3.40;;
23678;SDS011;12016;51.668;6.874;2022-09-21T23:03:06;3.90;;;3.50;;
23678;SDS011;12016;51.668;6.874;2022-09-21T23:09:11;4.35;;;3.65;;
23678;SDS011;12016;51.668;6.874;2022-09-21T23:15:16;4.82;;;4.07;;
23678;SDS011;12016;51.668;6.874;2022-09-21T23:21:21;4.68;;;3.50;;
23678;SDS011;12016;51.668;6.874;2022-09-21T23:27:25;3.97;;;3.60;;
23678;SDS011;12016;51.668;6.874;2022-09-21T23:33:31;5.05;;;3.70;;
23678;SDS011;12016;51.668;6.874;2022-09-21T23:39:37;4.32;;;3.50;;
23678;SDS011;12016;51.668;6.874;2022-09-21T23:45:40;4.10;;;3.70;;
23678;SDS011;12016;51.668;6.874;2022-09-21T23:51:42;3.92;;;3.63;;
23678;SDS011;12016;51.668;6.874;2022-09-21T23:57:44;4.47;;;2.80;;
